Terminal Aerodrome Forecast
Issued by NWS Louisville, KY

Current Version | Previous Version | Text Only | Print | Product List | Glossary On
Versions: 1 2 3 4 5 6 7 8 9 10 11 12 13 14
000
FTUS43 KLMK 202300
TAFBWG
TAF
KBWG 202320Z 2100/2124 20008KT P6SM BKN050 BKN090
     FM210400 22004KT P6SM SCT250
     FM210900 22006KT P6SM SCT250 WS015/25030KT
     FM211300 25009KT P6SM VCSH BKN040=

USA.gov is the U.S. government's official web portal to all federal, state and local government web resources and services.